KDNN

Dalton Municipal Airport

Dalton, Georgia, USA
METAR KDNN 231455Z AUTO 00000KT 10SM CLR 24/21 A3013 RMK AO2
Observed Flight Rules
May-23 @ 14:55 UTC (6 minutes ago) Visual Flight Rules
Visibility Clouds
10 miles
  • Clear skies
Temperatures Readings
Current 24°C / 75°F
Dewpoint 21°C / 70°F
Humidity 83%
Altimeter 30.13" Hg
Pressure 1020 hPa
Elevation 216
METAR KDNN 231455Z AUTO 00000KT 10SM CLR 24/21 A3013 RMK AO2
Observed Flight Rules
May-23 @ 14:55 UTC
(6 minutes ago)
VFR
Clouds
  • Clear skies
Temperature Dewpoint
24°C / 75°F 21°C / 70°F
Humidity Altimeter Pressure
83% 30.13" Hg 1020 hPa